createdAt,value
2022-12-28T00:02:19.425Z,7.40
2022-12-28T00:04:48.466Z,8.80
2022-12-28T00:07:16.209Z,7.33
2022-12-28T00:09:43.914Z,9.17
2022-12-28T00:12:11.575Z,7.87
2022-12-28T00:14:39.383Z,7.60
2022-12-28T00:17:07.590Z,10.17
2022-12-28T00:19:35.209Z,8.60
2022-12-28T00:22:04.295Z,8.60
2022-12-28T00:24:32.036Z,8.07
2022-12-28T00:26:59.766Z,7.57
2022-12-28T00:29:27.418Z,7.53
2022-12-28T00:31:55.144Z,8.97
2022-12-28T00:34:22.832Z,10.40
2022-12-28T00:37:11.969Z,7.87
2022-12-28T00:39:40.345Z,9.13
2022-12-28T00:42:08.031Z,8.07
2022-12-28T00:44:35.673Z,8.33
2022-12-28T00:47:03.366Z,8.43
2022-12-28T00:49:31.038Z,8.87
2022-12-28T00:51:58.724Z,7.17
2022-12-28T00:54:26.450Z,7.97
2022-12-28T00:56:55.465Z,8.50
2022-12-28T00:59:23.076Z,12.13
2022-12-28T01:01:50.826Z,15.00
2022-12-28T01:04:18.535Z,13.07
2022-12-28T01:06:46.160Z,12.53
2022-12-28T01:09:13.818Z,17.00
2022-12-28T01:11:41.439Z,14.50
2022-12-28T01:14:10.503Z,16.03
2022-12-28T01:16:38.357Z,12.17
2022-12-28T01:19:08.991Z,11.67
2022-12-28T01:21:37.039Z,10.87
2022-12-28T01:24:06.020Z,9.63
2022-12-28T01:26:34.011Z,11.27
2022-12-28T01:29:01.916Z,10.87
2022-12-28T01:31:30.909Z,10.77
2022-12-28T01:33:58.657Z,10.67
2022-12-28T01:36:27.641Z,10.77
2022-12-28T01:38:56.093Z,10.33
2022-12-28T01:41:24.242Z,11.17
2022-12-28T01:44:07.248Z,11.23
2022-12-28T01:46:38.905Z,12.93
2022-12-28T01:49:09.134Z,13.23
2022-12-28T01:51:43.268Z,11.67
2022-12-28T01:54:11.064Z,12.67
2022-12-28T01:56:39.087Z,14.10
2022-12-28T01:59:06.850Z,13.37
2022-12-28T02:01:34.654Z,13.33
2022-12-28T02:04:03.870Z,11.43
2022-12-28T02:06:32.299Z,13.83
2022-12-28T02:09:02.369Z,12.27
2022-12-28T02:11:30.461Z,13.13
2022-12-28T02:13:59.014Z,15.60
2022-12-28T02:16:26.649Z,14.43
2022-12-28T02:18:55.213Z,13.53
2022-12-28T02:21:34.788Z,14.17
2022-12-28T02:24:14.772Z,14.07
2022-12-28T02:27:03.231Z,14.17
2022-12-28T02:29:52.072Z,16.73
2022-12-28T02:32:27.738Z,15.27
2022-12-28T02:34:58.360Z,13.80
2022-12-28T02:37:28.301Z,14.53
2022-12-28T02:39:57.482Z,14.07
2022-12-28T02:42:26.437Z,12.20
2022-12-28T02:45:13.198Z,15.37
2022-12-28T02:47:59.837Z,13.47
2022-12-28T02:50:32.820Z,13.87
2022-12-28T02:53:15.292Z,14.73
2022-12-28T02:56:07.179Z,14.70
2022-12-28T02:58:48.879Z,12.93
2022-12-28T03:01:22.465Z,14.80
2022-12-28T03:03:56.299Z,12.77
2022-12-28T03:06:45.015Z,15.00
2022-12-28T03:09:14.880Z,13.37
2022-12-28T03:11:45.477Z,11.87
2022-12-28T03:14:15.183Z,14.37
2022-12-28T03:17:03.905Z,13.90
2022-12-28T03:19:50.917Z,12.33
2022-12-28T03:22:36.310Z,18.00
2022-12-28T03:25:23.965Z,19.33
2022-12-28T03:28:09.335Z,19.90
2022-12-28T03:30:56.004Z,17.67
2022-12-28T03:33:25.096Z,18.80
2022-12-28T03:35:56.835Z,17.67
2022-12-28T03:38:28.416Z,17.17
2022-12-28T03:40:59.606Z,15.70
2022-12-28T03:43:43.117Z,16.33
2022-12-28T03:46:14.533Z,11.73
2022-12-28T03:48:44.413Z,14.43
2022-12-28T03:51:13.527Z,13.70
2022-12-28T03:53:42.716Z,13.53
2022-12-28T03:56:11.316Z,11.17
2022-12-28T03:58:39.070Z,12.90
2022-12-28T04:01:06.842Z,11.00
2022-12-28T04:03:34.882Z,11.47
2022-12-28T04:06:03.974Z,10.00
2022-12-28T04:08:32.416Z,8.93
2022-12-28T04:11:00.578Z,10.20
2022-12-28T04:13:29.544Z,9.23
2022-12-28T04:15:58.217Z,12.30
2022-12-28T04:18:25.985Z,8.53
2022-12-28T04:20:53.970Z,8.67
2022-12-28T04:23:22.959Z,8.70
2022-12-28T04:26:00.942Z,9.10
2022-12-28T04:28:29.049Z,10.70
2022-12-28T04:30:57.143Z,7.63
2022-12-28T04:33:25.055Z,8.70
2022-12-28T04:35:52.803Z,9.17
2022-12-28T04:38:20.479Z,6.50
2022-12-28T04:40:49.619Z,9.63
2022-12-28T04:43:17.268Z,7.17
2022-12-28T04:45:44.898Z,7.03
2022-12-28T04:48:12.550Z,8.77
2022-12-28T04:50:40.211Z,8.80
2022-12-28T04:53:07.867Z,8.00
2022-12-28T04:55:35.663Z,7.33
2022-12-28T04:58:04.984Z,7.33
2022-12-28T05:00:32.720Z,7.40
2022-12-28T05:03:00.935Z,8.50
2022-12-28T05:05:29.081Z,6.37
2022-12-28T05:07:57.060Z,9.57
2022-12-28T05:10:24.755Z,6.97
2022-12-28T05:12:52.371Z,7.37
2022-12-28T05:15:21.375Z,7.23
2022-12-28T05:17:49.168Z,6.50
2022-12-28T05:20:18.156Z,7.10
2022-12-28T05:22:45.811Z,6.33
2022-12-28T05:25:13.549Z,6.87
2022-12-28T05:27:41.204Z,9.17
2022-12-28T05:30:09.580Z,7.80
2022-12-28T05:32:38.726Z,8.83
2022-12-28T05:35:06.670Z,6.47
2022-12-28T05:37:34.351Z,6.43
2022-12-28T05:40:02.580Z,8.93
2022-12-28T05:42:30.234Z,7.10
2022-12-28T05:44:57.884Z,8.53
2022-12-28T05:47:25.613Z,8.57
2022-12-28T05:49:54.630Z,7.07
2022-12-28T05:52:22.241Z,6.83
2022-12-28T05:54:49.956Z,7.57
2022-12-28T05:57:17.559Z,8.27
2022-12-28T05:59:45.167Z,7.23
2022-12-28T06:02:12.997Z,9.33
2022-12-28T06:04:41.257Z,8.13
2022-12-28T06:07:10.251Z,10.97
2022-12-28T06:09:38.043Z,15.07
2022-12-28T06:12:07.018Z,15.47
2022-12-28T06:14:34.697Z,14.07
2022-12-28T06:17:02.475Z,17.00
2022-12-28T06:19:30.331Z,15.83
2022-12-28T06:21:58.138Z,15.83
2022-12-28T06:24:27.219Z,18.27
2022-12-28T06:26:54.891Z,16.80
2022-12-28T06:29:22.563Z,20.43
2022-12-28T06:31:51.487Z,19.60
2022-12-28T06:34:19.207Z,18.27
2022-12-28T06:36:47.193Z,23.53
2022-12-28T06:39:15.480Z,26.70
2022-12-28T06:41:44.484Z,29.57
2022-12-28T06:44:13.140Z,30.27
2022-12-28T06:46:41.824Z,30.97
2022-12-28T06:49:09.795Z,30.80
2022-12-28T06:51:40.560Z,28.07
2022-12-28T06:54:09.260Z,24.17
2022-12-28T06:56:37.517Z,22.17
2022-12-28T06:59:06.541Z,18.70
2022-12-28T07:01:35.202Z,19.10
2022-12-28T07:04:04.114Z,21.37
2022-12-28T07:06:35.258Z,22.13
2022-12-28T07:09:03.499Z,19.50
2022-12-28T07:11:31.355Z,21.63
2022-12-28T07:13:59.318Z,20.63
2022-12-28T07:18:56.451Z,22.37
2022-12-28T07:21:25.017Z,19.10
2022-12-28T07:23:53.448Z,18.70
2022-12-28T07:26:22.509Z,19.47
2022-12-28T07:28:51.467Z,19.30
2022-12-28T07:31:19.877Z,21.27
2022-12-28T07:33:49.293Z,25.13
2022-12-28T07:36:18.175Z,21.30
2022-12-28T07:38:46.036Z,17.97
2022-12-28T07:41:14.666Z,18.90
2022-12-28T07:43:42.376Z,25.13
2022-12-28T07:46:11.363Z,28.20
2022-12-28T07:48:39.572Z,20.37
2022-12-28T07:51:10.655Z,16.57
2022-12-28T07:53:38.361Z,19.40
2022-12-28T07:56:06.572Z,14.33
2022-12-28T07:58:34.246Z,16.90
2022-12-28T08:01:05.938Z,15.83
2022-12-28T08:03:34.169Z,18.97
2022-12-28T08:06:09.972Z,15.13
2022-12-28T08:08:38.018Z,18.70
2022-12-28T08:11:06.379Z,18.80
2022-12-28T08:13:34.718Z,19.47
2022-12-28T08:16:02.748Z,19.57
2022-12-28T08:18:31.153Z,23.97
2022-12-28T08:21:01.863Z,18.33
2022-12-28T08:23:31.170Z,20.60
2022-12-28T08:25:58.919Z,22.97
2022-12-28T08:28:26.605Z,19.30
2022-12-28T08:30:54.318Z,22.20
2022-12-28T08:33:21.921Z,24.03
2022-12-28T08:35:49.605Z,22.10
2022-12-28T08:38:17.228Z,24.37
2022-12-28T08:40:57.553Z,21.73
2022-12-28T08:43:25.752Z,22.83
2022-12-28T08:45:59.949Z,26.33
2022-12-28T08:48:27.700Z,27.80
2022-12-28T08:50:55.677Z,24.40
2022-12-28T08:53:24.440Z,26.60
2022-12-28T08:55:53.489Z,23.30
2022-12-28T08:58:21.208Z,25.23
2022-12-28T09:00:48.829Z,21.17
2022-12-28T09:03:16.502Z,22.87
2022-12-28T09:05:44.356Z,23.20
2022-12-28T09:08:11.984Z,26.27
2022-12-28T09:10:39.605Z,28.37
2022-12-28T09:13:08.661Z,25.77
2022-12-28T09:15:36.335Z,24.73
2022-12-28T09:18:04.445Z,24.33
2022-12-28T09:20:32.557Z,22.43
2022-12-28T09:23:00.175Z,20.07
2022-12-28T09:25:27.839Z,18.10
2022-12-28T09:27:59.305Z,16.80
2022-12-28T09:30:28.695Z,16.97
2022-12-28T09:33:17.144Z,18.90
2022-12-28T09:35:44.773Z,14.63
2022-12-28T09:38:12.414Z,12.53
2022-12-28T09:40:40.306Z,10.30
2022-12-28T09:43:09.808Z,12.70
2022-12-28T09:45:39.301Z,10.87
2022-12-28T09:48:09.407Z,12.00
2022-12-28T09:50:37.751Z,12.30
2022-12-28T09:53:20.836Z,10.40
2022-12-28T09:55:54.263Z,10.63
2022-12-28T09:58:22.208Z,12.77
2022-12-28T10:00:52.663Z,12.43
2022-12-28T10:03:21.545Z,15.50
2022-12-28T10:05:49.480Z,11.17
2022-12-28T10:08:18.458Z,15.07
2022-12-28T10:10:48.899Z,13.03
2022-12-28T10:13:53.084Z,12.20
2022-12-28T10:16:12.631Z,10.80
2022-12-28T10:18:40.438Z,10.60
2022-12-28T10:21:08.208Z,11.70
2022-12-28T10:23:50.125Z,10.90
2022-12-28T10:26:24.198Z,8.93
2022-12-28T10:28:52.871Z,11.60
2022-12-28T10:31:33.059Z,10.83
2022-12-28T10:34:00.871Z,13.13
2022-12-28T10:36:31.729Z,10.80
2022-12-28T10:38:59.643Z,14.13
2022-12-28T10:41:34.279Z,15.77
2022-12-28T10:44:39.271Z,13.07
2022-12-28T10:47:04.958Z,14.43
2022-12-28T10:49:33.643Z,12.67
2022-12-28T10:52:02.540Z,13.87
2022-12-28T10:54:32.641Z,12.87
2022-12-28T10:57:00.499Z,15.30
2022-12-28T10:59:28.772Z,15.43
2022-12-28T11:01:57.857Z,13.63
2022-12-28T11:04:27.356Z,13.20
2022-12-28T11:06:56.216Z,13.63
2022-12-28T11:09:24.893Z,13.93
2022-12-28T11:11:53.539Z,13.07
2022-12-28T11:14:26.520Z,12.67
2022-12-28T11:16:54.436Z,14.40
2022-12-28T11:19:23.222Z,14.90
2022-12-28T11:21:52.526Z,16.33
2022-12-28T11:24:21.505Z,17.17
2022-12-28T11:26:50.357Z,12.60
2022-12-28T11:29:18.960Z,15.87
2022-12-28T11:31:48.620Z,14.90
2022-12-28T11:34:18.835Z,15.90
2022-12-28T11:36:46.694Z,13.73
2022-12-28T11:39:43.846Z,12.33
2022-12-28T11:42:41.789Z,13.00
2022-12-28T11:44:59.729Z,17.27
2022-12-28T11:47:33.174Z,14.67
2022-12-28T11:50:19.489Z,14.47
2022-12-28T11:52:47.613Z,15.57
2022-12-28T11:55:33.711Z,13.90
2022-12-28T11:58:22.986Z,18.10
2022-12-28T12:00:51.012Z,13.10
2022-12-28T12:03:18.697Z,13.60
2022-12-28T12:05:50.536Z,19.07
2022-12-28T12:08:36.898Z,13.53
2022-12-28T12:11:32.256Z,10.97
2022-12-28T12:14:04.322Z,10.40
2022-12-28T12:16:35.640Z,11.83
2022-12-28T12:19:07.023Z,10.03
2022-12-28T12:21:36.926Z,8.13
2022-12-28T12:24:20.067Z,6.97
2022-12-28T12:26:50.395Z,12.63
2022-12-28T12:29:22.039Z,11.07
2022-12-28T12:31:52.031Z,11.07
2022-12-28T12:34:23.163Z,12.33
2022-12-28T12:37:08.832Z,9.57
2022-12-28T12:39:45.176Z,13.37
2022-12-28T12:42:17.797Z,10.87
2022-12-28T12:44:50.622Z,11.73
2022-12-28T12:47:46.945Z,13.57
2022-12-28T12:50:21.672Z,13.83
2022-12-28T12:52:54.803Z,11.87
2022-12-28T12:55:32.742Z,12.37
2022-12-28T12:58:03.298Z,13.37
2022-12-28T13:00:38.716Z,12.67
2022-12-28T13:03:22.866Z,17.93
2022-12-28T13:05:52.708Z,11.33
2022-12-28T13:08:25.538Z,10.70
2022-12-28T13:10:54.059Z,11.90
2022-12-28T13:13:26.772Z,13.30
2022-12-28T13:15:58.183Z,10.50
2022-12-28T13:21:20.421Z,11.40
2022-12-28T13:23:48.269Z,11.20
2022-12-28T13:26:16.641Z,12.10
2022-12-28T13:28:48.783Z,13.03
2022-12-28T13:31:19.316Z,11.87
2022-12-28T13:33:55.240Z,11.43
2022-12-28T13:36:22.894Z,10.37
2022-12-28T13:39:01.229Z,13.57
2022-12-28T13:41:28.884Z,9.47
2022-12-28T13:44:11.485Z,14.93
2022-12-28T13:46:42.012Z,13.93
2022-12-28T13:49:10.212Z,14.47
2022-12-28T13:51:39.604Z,13.37
2022-12-28T13:54:08.361Z,10.37
2022-12-28T13:56:37.587Z,10.93
2022-12-28T13:59:07.916Z,13.07
2022-12-28T14:01:37.525Z,13.20
2022-12-28T14:04:50.636Z,14.70
2022-12-28T14:06:55.684Z,11.47
2022-12-28T14:09:23.780Z,11.90
2022-12-28T14:11:51.926Z,11.63
2022-12-28T14:14:19.709Z,11.93
2022-12-28T14:16:47.557Z,15.17
2022-12-28T14:19:16.730Z,14.93
2022-12-28T14:21:45.348Z,15.60
2022-12-28T14:24:14.053Z,17.47
2022-12-28T14:26:46.069Z,16.30
2022-12-28T14:29:15.182Z,16.60
2022-12-28T14:31:42.803Z,18.67
2022-12-28T14:34:21.029Z,19.47
2022-12-28T14:36:51.124Z,18.80
2022-12-28T14:39:23.821Z,21.63
2022-12-28T14:41:51.734Z,17.87
2022-12-28T14:44:22.910Z,18.70
2022-12-28T14:46:54.583Z,18.50
2022-12-28T14:49:30.761Z,15.70
2022-12-28T14:52:19.771Z,24.07
2022-12-28T14:54:48.021Z,22.73
2022-12-28T14:57:20.931Z,22.93
2022-12-28T14:59:51.815Z,18.30
2022-12-28T15:02:39.115Z,18.83
2022-12-28T15:05:27.036Z,20.07
2022-12-28T15:07:56.096Z,29.80
2022-12-28T15:10:23.706Z,27.43
2022-12-28T15:12:51.329Z,33.53
2022-12-28T15:15:19.205Z,36.73
2022-12-28T15:17:47.450Z,44.30
2022-12-28T15:20:15.427Z,36.50
2022-12-28T15:22:43.528Z,37.93
2022-12-28T15:25:13.270Z,45.07
2022-12-28T15:27:40.920Z,56.60
2022-12-28T15:30:13.181Z,50.60
2022-12-28T15:32:44.511Z,57.37
2022-12-28T15:35:12.128Z,54.80
2022-12-28T15:37:40.038Z,61.23
2022-12-28T15:40:08.508Z,53.53
2022-12-28T15:42:40.682Z,57.17
2022-12-28T15:45:10.461Z,57.73
2022-12-28T15:47:38.124Z,58.97
2022-12-28T15:50:06.377Z,52.97
2022-12-28T15:52:34.152Z,52.50
2022-12-28T15:55:01.863Z,47.83
2022-12-28T15:57:29.784Z,50.53
2022-12-28T15:59:58.882Z,48.93
2022-12-28T16:02:26.888Z,54.93
2022-12-28T16:04:54.717Z,41.60
2022-12-28T16:07:22.472Z,48.77
2022-12-28T16:09:50.262Z,44.77
2022-12-28T16:12:18.213Z,44.00
2022-12-28T16:14:46.983Z,39.90
2022-12-28T16:17:16.296Z,38.13
2022-12-28T16:19:44.431Z,43.33
2022-12-28T16:22:12.133Z,46.07
2022-12-28T16:24:39.752Z,34.90
2022-12-28T16:27:07.462Z,42.93
2022-12-28T16:29:35.219Z,43.77
2022-12-28T16:32:03.033Z,43.23
2022-12-28T16:34:32.751Z,40.60
2022-12-28T16:37:00.700Z,34.90
2022-12-28T16:39:29.863Z,31.93
2022-12-28T16:41:58.122Z,42.27
2022-12-28T16:44:27.034Z,38.47
2022-12-28T16:46:56.576Z,39.27
2022-12-28T16:49:24.247Z,39.27
2022-12-28T16:51:53.436Z,36.93
2022-12-28T16:54:21.881Z,41.70
2022-12-28T16:56:49.748Z,38.70
2022-12-28T16:59:18.950Z,38.60
2022-12-28T17:01:46.886Z,37.47
2022-12-28T17:04:14.772Z,41.53
2022-12-28T17:06:42.741Z,44.77
2022-12-28T17:09:11.771Z,40.10
2022-12-28T17:11:39.389Z,49.13
2022-12-28T17:14:08.095Z,69.40
2022-12-28T17:16:35.832Z,38.57
2022-12-28T17:19:03.784Z,34.73
2022-12-28T17:21:32.853Z,41.17
2022-12-28T17:24:01.938Z,45.73
2022-12-28T17:26:30.996Z,32.67
2022-12-28T17:28:59.031Z,50.63
2022-12-28T17:31:26.744Z,46.80
2022-12-28T17:33:55.439Z,50.20
2022-12-28T17:36:23.700Z,30.37
2022-12-28T17:38:51.338Z,38.10
2022-12-28T17:41:20.517Z,34.10
2022-12-28T17:43:50.660Z,35.30
2022-12-28T17:46:18.634Z,28.77
2022-12-28T17:48:46.451Z,37.50
2022-12-28T17:51:14.359Z,36.53
2022-12-28T17:53:42.059Z,41.90
2022-12-28T17:56:10.871Z,50.33
2022-12-28T17:58:38.672Z,48.20
2022-12-28T18:01:07.839Z,45.63
2022-12-28T18:03:35.744Z,52.60
2022-12-28T18:06:03.537Z,47.67
2022-12-28T18:08:31.209Z,55.40
2022-12-28T18:10:58.833Z,50.87
2022-12-28T18:13:26.601Z,59.17
2022-12-28T18:15:54.215Z,58.27
2022-12-28T18:18:24.080Z,58.27
2022-12-28T18:20:58.606Z,63.33
2022-12-28T18:23:28.175Z,62.60
2022-12-28T18:26:01.794Z,64.00
2022-12-28T18:28:29.514Z,47.10
2022-12-28T18:31:01.771Z,33.93
2022-12-28T18:33:32.100Z,35.03
2022-12-28T18:35:59.794Z,37.03
2022-12-28T18:38:27.429Z,34.43
2022-12-28T18:40:56.171Z,35.80
2022-12-28T18:43:23.948Z,32.57
2022-12-28T18:45:54.890Z,28.53
2022-12-28T18:48:23.472Z,28.10
2022-12-28T18:50:56.371Z,30.17
2022-12-28T18:53:25.299Z,26.53
2022-12-28T18:55:59.388Z,22.50
2022-12-28T18:58:27.280Z,21.97
2022-12-28T19:00:54.936Z,27.70
2022-12-28T19:03:22.806Z,24.53
2022-12-28T19:06:02.648Z,19.57
2022-12-28T19:08:31.032Z,20.50
2022-12-28T19:10:58.759Z,18.03
2022-12-28T19:13:26.478Z,17.73
2022-12-28T19:15:54.274Z,16.70
2022-12-28T19:18:22.187Z,13.37
2022-12-28T19:20:49.907Z,14.67
2022-12-28T19:23:18.934Z,15.33
2022-12-28T19:25:46.603Z,16.37
2022-12-28T19:28:14.288Z,16.13
2022-12-28T19:30:41.932Z,14.73
2022-12-28T19:33:09.590Z,15.80
2022-12-28T19:35:37.314Z,17.60
2022-12-28T19:38:04.930Z,18.97
2022-12-28T19:40:33.978Z,19.97
2022-12-28T19:43:01.678Z,15.43
2022-12-28T19:45:29.298Z,18.17
2022-12-28T19:47:56.927Z,17.30
2022-12-28T19:50:24.619Z,15.93
2022-12-28T19:52:52.299Z,19.20
2022-12-28T19:55:19.958Z,17.60
2022-12-28T19:57:49.125Z,16.27
2022-12-28T20:00:16.978Z,16.40
2022-12-28T20:02:44.707Z,13.97
2022-12-28T20:05:12.547Z,17.67
2022-12-28T20:07:40.546Z,18.23
2022-12-28T20:10:08.461Z,17.57
2022-12-28T20:12:36.236Z,16.93
2022-12-28T20:15:05.680Z,14.47
2022-12-28T20:17:35.625Z,16.10
2022-12-28T20:20:03.526Z,18.27
2022-12-28T20:22:31.188Z,19.57
2022-12-28T20:24:58.871Z,18.80
2022-12-28T20:27:30.487Z,22.23
2022-12-28T20:29:58.267Z,24.30
2022-12-28T20:32:27.312Z,26.73
2022-12-28T20:34:54.973Z,26.80
2022-12-28T20:37:22.627Z,29.70
2022-12-28T20:39:50.327Z,33.10
2022-12-28T20:42:35.306Z,25.87
2022-12-28T20:45:03.006Z,28.40
2022-12-28T20:47:31.990Z,23.30
2022-12-28T20:49:59.590Z,25.70
2022-12-28T20:52:27.395Z,25.60
2022-12-28T20:54:55.050Z,26.63
2022-12-28T20:57:22.664Z,25.73
2022-12-28T20:59:50.355Z,25.67
2022-12-28T21:02:18.087Z,33.50
2022-12-28T21:04:47.183Z,26.27
2022-12-28T21:07:15.011Z,24.93
2022-12-28T21:09:42.704Z,21.03
2022-12-28T21:12:10.351Z,25.30
2022-12-28T21:14:38.002Z,25.17
2022-12-28T21:17:05.650Z,23.27
2022-12-28T21:19:33.700Z,20.83
2022-12-28T21:22:02.792Z,22.33
2022-12-28T21:24:30.410Z,23.27
2022-12-28T21:26:59.957Z,22.17
2022-12-28T21:29:27.799Z,25.30
2022-12-28T21:31:55.542Z,22.40
2022-12-28T21:34:23.345Z,20.73
2022-12-28T21:36:51.000Z,21.07
2022-12-28T21:39:20.107Z,23.30
2022-12-28T21:41:50.540Z,24.33
2022-12-28T21:44:20.666Z,20.53
2022-12-28T21:46:49.797Z,24.83
2022-12-28T21:49:17.491Z,26.67
2022-12-28T21:51:45.150Z,23.17
2022-12-28T21:54:13.871Z,25.87
2022-12-28T21:56:43.886Z,24.53
2022-12-28T21:59:11.855Z,23.87
2022-12-28T22:01:58.503Z,20.80
2022-12-28T22:04:43.954Z,25.37
2022-12-28T22:07:12.733Z,20.10
2022-12-28T22:09:58.485Z,21.00
2022-12-28T22:12:37.262Z,18.13
2022-12-28T22:15:28.026Z,18.13
2022-12-28T22:17:56.710Z,16.17
2022-12-28T22:20:25.247Z,18.87
2022-12-28T22:22:55.321Z,16.47
2022-12-28T22:25:23.049Z,18.97
2022-12-28T22:27:52.065Z,16.17
2022-12-28T22:30:19.741Z,23.10
2022-12-28T22:32:47.714Z,16.60
2022-12-28T22:35:15.424Z,15.77
2022-12-28T22:37:43.381Z,15.73
2022-12-28T22:40:11.796Z,16.30
2022-12-28T22:42:42.198Z,18.00
2022-12-28T22:45:12.484Z,19.03
2022-12-28T22:47:40.256Z,22.40
2022-12-28T22:50:09.002Z,20.83
2022-12-28T22:52:36.770Z,20.13
2022-12-28T22:55:04.567Z,17.53
2022-12-28T22:57:32.369Z,21.00
2022-12-28T23:00:00.042Z,18.47
2022-12-28T23:02:30.053Z,17.87
2022-12-28T23:04:57.777Z,19.20
2022-12-28T23:07:25.524Z,21.87
2022-12-28T23:09:53.195Z,18.10
2022-12-28T23:12:20.941Z,15.60
2022-12-28T23:15:05.887Z,16.87
2022-12-28T23:17:35.722Z,14.63
2022-12-28T23:20:20.756Z,18.03
2022-12-28T23:23:05.751Z,16.27
2022-12-28T23:25:50.742Z,15.10
2022-12-28T23:28:18.492Z,14.23
2022-12-28T23:30:47.189Z,15.60
2022-12-28T23:33:16.519Z,18.00
2022-12-28T23:35:44.555Z,21.20
2022-12-28T23:38:12.452Z,21.47
2022-12-28T23:40:40.860Z,20.60
2022-12-28T23:43:08.913Z,22.53
2022-12-28T23:45:36.855Z,24.80
2022-12-28T23:48:05.355Z,19.50
2022-12-28T23:50:34.482Z,21.97
2022-12-28T23:53:02.149Z,35.07
2022-12-28T23:55:29.913Z,34.07
2022-12-28T23:57:57.673Z,28.30
